Time;durP1;ratioP1;P1;durP2;ratioP2;P2;SDS_P1;SDS_P2;PMS_P1;PMS_P2;Temp;Humidity;BMP_temperature;BMP_pressure;BME280_temperature;BME280_humidity;BME280_pressure;Samples;Min_cycle;Max_cycle;Signal;HPM_P1;HPM_P2
2022/04/30 00:01:19;;;;;;;7.18;5.55;;;9.80;99.90;;;;;;5015699;28;20181;-86
2022/04/30 00:03:45;;;;;;;6.57;5.35;;;9.90;99.90;;;;;;5016132;28;20584;-86
2022/04/30 00:06:11;;;;;;;10.07;4.70;;;9.90;99.90;;;;;;5015431;28;20270;-85
2022/04/30 00:08:36;;;;;;;6.80;5.35;;;9.90;99.90;;;;;;5030983;28;20663;-84
2022/04/30 00:11:03;;;;;;;7.25;4.55;;;9.70;99.90;;;;;;5015568;28;20251;-86
2022/04/30 00:13:30;;;;;;;8.80;5.15;;;9.60;99.90;;;;;;5014149;28;20168;-79
2022/04/30 00:15:56;;;;;;;7.88;6.15;;;9.60;99.90;;;;;;5015236;28;20199;-87
2022/04/30 00:18:22;;;;;;;8.02;4.78;;;9.70;99.90;;;;;;5015804;28;20173;-91
2022/04/30 00:20:47;;;;;;;5.50;5.00;;;9.70;99.90;;;;;;5015795;28;20177;-91
2022/04/30 00:23:20;;;;;;;8.95;5.35;;;9.60;99.90;;;;;;5014903;28;20170;-91
2022/04/30 00:25:53;;;;;;;6.28;5.35;;;9.60;99.90;;;;;;5015320;28;20230;-88
2022/04/30 00:28:21;;;;;;;15.38;6.15;;;9.50;99.90;;;;;;5015668;28;20239;-91
2022/04/30 00:30:48;;;;;;;9.98;5.45;;;9.50;99.90;;;;;;5015310;28;20169;-90
2022/04/30 00:33:14;;;;;;;6.03;5.15;;;9.60;99.90;;;;;;5015487;28;20202;-87
2022/04/30 00:35:40;;;;;;;8.23;5.20;;;9.70;99.90;;;;;;5015135;28;20184;-92
2022/04/30 00:38:06;;;;;;;14.23;5.45;;;9.50;99.90;;;;;;5030563;28;20533;-92
2022/04/30 00:40:32;;;;;;;11.75;5.95;;;9.50;99.90;;;;;;5030696;28;20644;-93
2022/04/30 00:42:59;;;;;;;15.30;5.90;;;9.60;99.90;;;;;;5014914;28;20168;-91
2022/04/30 00:45:32;;;;;;;8.00;5.65;;;9.50;99.90;;;;;;5014645;28;20192;-92
2022/04/30 00:47:58;;;;;;;19.30;6.10;;;9.40;99.90;;;;;;5013919;28;20176;-91
2022/04/30 00:50:27;;;;;;;8.00;5.78;;;9.30;99.90;;;;;;5031073;28;20226;-90
2022/04/30 00:52:57;;;;;;;7.47;5.22;;;9.50;99.90;;;;;;5019248;28;20168;-80
2022/04/30 00:55:29;;;;;;;6.40;5.75;;;9.50;99.90;;;;;;5034889;28;20184;-80
2022/04/30 00:57:56;;;;;;;9.88;5.00;;;9.30;99.90;;;;;;5030691;28;20172;-91
2022/04/30 01:00:22;;;;;;;7.78;5.40;;;9.50;99.90;;;;;;5033342;28;20257;-82
2022/04/30 01:02:53;;;;;;;11.35;5.57;;;9.50;99.90;;;;;;5017413;28;20203;-88
2022/04/30 01:05:19;;;;;;;7.70;6.13;;;9.30;99.90;;;;;;5029233;28;20235;-86
2022/04/30 01:07:44;;;;;;;15.10;5.07;;;9.30;99.90;;;;;;5014244;28;20168;-80
2022/04/30 01:10:10;;;;;;;8.05;6.07;;;9.30;99.90;;;;;;5014025;28;20255;-81
2022/04/30 01:12:39;;;;;;;10.55;5.28;;;9.30;99.90;;;;;;5013618;28;20176;-82
2022/04/30 01:15:06;;;;;;;6.03;5.28;;;9.10;99.90;;;;;;5028527;28;20661;-86
2022/04/30 01:17:35;;;;;;;9.55;6.00;;;9.00;99.90;;;;;;5013808;28;20168;-88
2022/04/30 01:20:01;;;;;;;9.35;5.85;;;9.00;99.90;;;;;;5013522;28;20259;-83
2022/04/30 01:22:34;;;;;;;10.38;5.20;;;9.10;99.90;;;;;;5013640;28;20255;-82
2022/04/30 01:25:03;;;;;;;7.40;5.82;;;9.20;99.90;;;;;;5013512;28;20184;-88
2022/04/30 01:27:29;;;;;;;10.75;4.88;;;9.20;99.90;;;;;;5013753;28;20230;-83
2022/04/30 01:30:03;;;;;;;11.75;6.68;;;9.30;99.90;;;;;;5013805;28;20195;-85
2022/04/30 01:38:05;;;;;;;8.85;5.75;;;9.10;99.90;;;;;;5013381;28;20242;-85
2022/04/30 01:40:31;;;;;;;10.05;6.13;;;8.90;99.90;;;;;;5013671;28;20160;-81
2022/04/30 01:43:01;;;;;;;5.72;5.13;;;8.90;99.90;;;;;;5013601;28;20226;-83
2022/04/30 01:45:28;;;;;;;8.70;5.72;;;8.90;99.90;;;;;;5028680;28;20530;-83
2022/04/30 01:47:56;;;;;;;7.80;5.65;;;8.90;99.90;;;;;;5013785;28;20196;-85
2022/04/30 01:50:28;;;;;;;6.55;5.15;;;9.00;99.90;;;;;;5014132;28;20165;-90
2022/04/30 01:52:53;;;;;;;10.27;5.78;;;9.00;99.90;;;;;;5013916;28;20200;-91
2022/04/30 01:55:19;;;;;;;11.25;5.25;;;8.80;99.90;;;;;;5013903;28;20216;-88
2022/04/30 01:57:45;;;;;;;6.55;5.32;;;8.80;99.90;;;;;;5012773;28;20169;-87
2022/04/30 02:00:14;;;;;;;14.65;5.65;;;8.60;99.90;;;;;;5013862;28;20223;-91
2022/04/30 02:02:42;;;;;;;12.07;5.30;;;8.70;99.90;;;;;;5014064;28;20160;-89
2022/04/30 02:05:09;;;;;;;5.32;4.82;;;8.70;99.90;;;;;;5013727;28;20191;-90
2022/04/30 02:07:49;;;;;;;7.05;5.50;;;8.80;99.90;;;;;;5014000;28;20196;-91
2022/04/30 02:10:18;;;;;;;5.03;4.50;;;8.70;99.90;;;;;;5028987;28;20180;-92
2022/04/30 02:12:45;;;;;;;7.05;4.93;;;8.80;99.90;;;;;;5013713;28;20161;-88
2022/04/30 02:15:14;;;;;;;11.63;4.85;;;8.70;99.90;;;;;;5013467;28;20641;-86
2022/04/30 02:17:41;;;;;;;7.57;4.93;;;8.40;99.90;;;;;;5012565;28;20268;-90
2022/04/30 02:22:55;;;;;;;5.35;4.85;;;8.60;99.90;;;;;;5013226;28;20207;-87
2022/04/30 02:25:21;;;;;;;12.02;5.25;;;8.40;99.90;;;;;;5012649;28;20196;-83
2022/04/30 02:28:04;;;;;;;6.32;5.20;;;8.30;99.90;;;;;;5013200;28;20204;-84
2022/04/30 02:30:31;;;;;;;10.70;4.85;;;8.30;99.90;;;;;;5013266;28;20195;-84
2022/04/30 02:33:05;;;;;;;5.40;4.85;;;8.50;99.90;;;;;;5011695;28;20248;-84
2022/04/30 02:35:34;;;;;;;8.40;4.85;;;8.40;99.90;;;;;;5012939;28;20275;-87
2022/04/30 02:38:01;;;;;;;4.63;3.83;;;8.40;99.90;;;;;;5013931;28;20599;-92
2022/04/30 02:40:28;;;;;;;4.63;4.20;;;8.30;99.90;;;;;;5013752;28;20197;-92
2022/04/30 02:42:54;;;;;;;11.40;4.25;;;8.10;99.90;;;;;;5013510;28;20179;-91
2022/04/30 02:45:24;;;;;;;5.47;4.97;;;8.20;99.90;;;;;;5013110;28;20542;-87
2022/04/30 02:47:55;;;;;;;6.03;5.53;;;8.30;99.90;;;;;;5013552;28;20191;-90
2022/04/30 02:50:22;;;;;;;6.18;4.32;;;8.40;99.90;;;;;;5017013;28;20191;-85
2022/04/30 02:52:52;;;;;;;9.73;3.75;;;8.40;99.90;;;;;;5016465;28;20173;-84
2022/04/30 02:55:18;;;;;;;5.97;4.55;;;8.50;99.90;;;;;;5016488;28;20275;-81
2022/04/30 03:00:34;;;;;;;4.18;3.80;;;8.60;99.90;;;;;;5016287;28;20187;-91
2022/04/30 03:03:00;;;;;;;7.68;5.35;;;8.50;99.90;;;;;;5016733;28;20172;-91
2022/04/30 03:05:26;;;;;;;7.75;4.75;;;8.60;99.90;;;;;;5016543;28;20207;-84
2022/04/30 03:07:53;;;;;;;11.00;5.28;;;8.50;99.90;;;;;;5016675;28;20173;-88
2022/04/30 03:10:19;;;;;;;5.55;4.85;;;8.30;99.90;;;;;;5016764;28;20168;-87
2022/04/30 03:12:45;;;;;;;15.98;5.10;;;8.30;99.90;;;;;;5016146;28;20176;-85
2022/04/30 03:15:11;;;;;;;6.00;5.10;;;8.20;99.90;;;;;;5016224;28;20270;-93
2022/04/30 03:23:06;;;;;;;5.47;4.78;;;8.00;99.90;;;;;;5016931;28;20667;-91
2022/04/30 03:25:33;;;;;;;8.13;4.75;;;8.10;99.90;;;;;;5016421;28;20204;-88
2022/04/30 03:27:59;;;;;;;6.00;4.95;;;8.10;99.90;;;;;;5031850;28;20180;-91
2022/04/30 03:30:27;;;;;;;8.13;4.88;;;8.10;99.90;;;;;;5016422;28;20176;-87
2022/04/30 03:32:53;;;;;;;7.85;5.20;;;7.90;99.90;;;;;;5015926;28;20172;-88
2022/04/30 03:35:18;;;;;;;5.60;4.93;;;7.90;99.90;;;;;;5015199;28;20184;-90
2022/04/30 03:37:44;;;;;;;9.57;5.25;;;8.10;99.90;;;;;;5015952;28;20160;-85
2022/04/30 03:40:10;;;;;;;10.13;5.35;;;8.20;99.90;;;;;;5015989;28;20655;-87
2022/04/30 03:42:35;;;;;;;10.05;4.95;;;8.30;99.90;;;;;;5016605;28;20169;-88
2022/04/30 03:45:12;;;;;;;7.15;5.28;;;8.10;99.90;;;;;;5015706;28;20905;-87
2022/04/30 03:47:37;;;;;;;16.25;5.15;;;8.20;99.90;;;;;;5016075;28;20172;-89
2022/04/30 03:50:05;;;;;;;8.32;4.82;;;8.20;99.90;;;;;;5015600;28;20222;-85
2022/04/30 03:52:31;;;;;;;10.70;5.22;;;8.10;99.90;;;;;;5015670;28;20251;-85
2022/04/30 03:54:56;;;;;;;10.07;5.10;;;8.10;99.90;;;;;;5015505;28;20291;-86
2022/04/30 03:57:29;;;;;;;6.88;5.22;;;8.00;99.90;;;;;;5015151;28;20550;-86
2022/04/30 03:59:55;;;;;;;13.07;5.50;;;8.10;99.90;;;;;;5014463;28;20641;-86
2022/04/30 04:02:20;;;;;;;7.60;4.93;;;8.10;99.90;;;;;;5015027;28;20210;-87
2022/04/30 04:04:46;;;;;;;7.38;5.82;;;8.00;99.90;;;;;;5015327;28;20195;-86
2022/04/30 04:07:12;;;;;;;8.63;4.63;;;8.10;99.90;;;;;;5014932;28;20258;-85
2022/04/30 04:09:37;;;;;;;8.13;5.28;;;8.00;99.90;;;;;;5015436;28;20172;-82
2022/04/30 04:12:03;;;;;;;6.82;4.95;;;7.90;99.90;;;;;;5014843;28;20171;-81
2022/04/30 04:19:58;;;;;;;8.95;5.72;;;7.40;99.90;;;;;;5026369;28;20259;-78
2022/04/30 04:22:23;;;;;;;6.53;5.50;;;7.50;99.90;;;;;;5026031;28;20493;-87
2022/04/30 04:27:33;;;;;;;5.25;4.45;;;7.60;99.90;;;;;;5020059;28;20656;-91
2022/04/30 04:30:00;;;;;;;6.82;4.78;;;7.40;99.90;;;;;;5018373;28;20192;-82
2022/04/30 04:32:26;;;;;;;5.35;4.63;;;7.50;99.90;;;;;;5030155;28;20511;-83
2022/04/30 04:34:52;;;;;;;6.28;4.75;;;7.60;99.90;;;;;;5014885;28;20220;-89
2022/04/30 04:37:19;;;;;;;7.70;4.60;;;7.70;99.90;;;;;;5029905;28;20169;-83
2022/04/30 04:39:45;;;;;;;13.68;5.45;;;7.70;99.90;;;;;;5014486;28;20180;-82
2022/04/30 04:42:10;;;;;;;9.02;5.35;;;7.80;99.90;;;;;;5014897;28;20177;-81
2022/04/30 04:44:36;;;;;;;18.45;5.38;;;7.60;99.90;;;;;;5014517;28;20677;-86
2022/04/30 04:47:02;;;;;;;7.82;5.00;;;7.70;99.90;;;;;;5014061;28;20204;-81
2022/04/30 04:49:28;;;;;;;8.55;4.90;;;7.70;99.90;;;;;;5015033;28;20219;-89
2022/04/30 04:51:54;;;;;;;6.35;4.80;;;7.60;99.90;;;;;;5014897;28;20168;-80
2022/04/30 04:54:20;;;;;;;13.38;4.47;;;7.70;99.90;;;;;;5014222;28;20235;-87
2022/04/30 04:56:46;;;;;;;10.07;5.35;;;7.90;99.90;;;;;;5014302;28;20168;-81
2022/04/30 04:59:13;;;;;;;9.18;5.15;;;7.90;99.90;;;;;;5014384;28;20153;-82
2022/04/30 05:01:40;;;;;;;9.93;5.30;;;7.80;99.90;;;;;;5012421;28;20675;-80
2022/04/30 05:04:07;;;;;;;7.20;4.30;;;7.90;99.90;;;;;;5014383;28;20248;-85
2022/04/30 05:06:32;;;;;;;5.72;4.88;;;7.80;99.90;;;;;;5014093;28;20211;-82
2022/04/30 05:08:58;;;;;;;8.50;5.10;;;7.80;99.90;;;;;;5014238;28;20164;-88
2022/04/30 05:11:23;;;;;;;7.15;5.50;;;7.60;99.90;;;;;;5013838;28;20181;-85
2022/04/30 05:13:49;;;;;;;9.48;5.07;;;7.60;99.90;;;;;;5013913;28;20165;-92
2022/04/30 05:16:15;;;;;;;14.15;5.30;;;7.80;99.90;;;;;;5013715;28;20190;-79
2022/04/30 05:18:40;;;;;;;7.35;5.45;;;8.00;99.90;;;;;;5014348;28;20199;-88
2022/04/30 05:21:06;;;;;;;9.50;5.43;;;8.10;99.90;;;;;;5029448;28;20845;-85
2022/04/30 05:23:33;;;;;;;14.82;5.50;;;8.20;99.90;;;;;;5013817;28;20164;-82
2022/04/30 05:25:58;;;;;;;6.78;5.32;;;8.10;99.90;;;;;;5014556;28;20208;-89
2022/04/30 05:28:24;;;;;;;10.25;4.45;;;8.10;99.90;;;;;;5014601;28;20259;-88
2022/04/30 05:30:50;;;;;;;6.72;5.28;;;8.10;99.90;;;;;;5014465;28;20573;-83
2022/04/30 05:33:16;;;;;;;7.45;5.82;;;7.90;99.90;;;;;;5014210;28;20169;-89
2022/04/30 05:35:41;;;;;;;7.32;5.35;;;8.10;99.90;;;;;;5027828;28;20190;-82
2022/04/30 05:38:07;;;;;;;7.55;5.97;;;8.10;99.90;;;;;;5033457;28;20175;-85
2022/04/30 05:40:33;;;;;;;13.57;5.03;;;8.30;99.90;;;;;;5034511;28;20195;-92
2022/04/30 05:42:58;;;;;;;12.30;6.10;;;8.30;99.90;;;;;;5049239;28;20174;-82
2022/04/30 05:45:25;;;;;;;12.15;5.47;;;8.10;99.90;;;;;;5033086;28;20196;-84
2022/04/30 05:47:50;;;;;;;20.92;5.70;;;8.10;99.90;;;;;;5033024;28;20172;-84
2022/04/30 05:50:16;;;;;;;11.27;5.28;;;8.10;99.90;;;;;;5033297;28;20229;-86
2022/04/30 05:52:42;;;;;;;8.10;5.68;;;8.30;99.90;;;;;;5033405;28;20274;-80
2022/04/30 05:55:08;;;;;;;12.65;5.68;;;8.30;99.90;;;;;;5033407;28;20601;-83
2022/04/30 05:57:33;;;;;;;9.55;6.15;;;8.50;99.90;;;;;;5033476;28;20251;-85
2022/04/30 05:59:59;;;;;;;9.85;6.38;;;8.70;99.90;;;;;;5033192;28;20226;-85
2022/04/30 06:02:25;;;;;;;10.13;6.18;;;8.70;99.90;;;;;;5033455;28;20199;-78
2022/04/30 06:04:51;;;;;;;6.40;5.18;;;8.60;99.90;;;;;;5033361;28;20192;-84
2022/04/30 06:07:18;;;;;;;10.02;5.93;;;8.70;99.90;;;;;;5033139;28;20580;-88
2022/04/30 06:09:45;;;;;;;6.32;5.47;;;8.60;99.90;;;;;;5035314;28;20167;-81
2022/04/30 06:12:10;;;;;;;12.15;6.30;;;8.60;99.90;;;;;;5034062;28;20192;-85
2022/04/30 06:14:36;;;;;;;16.30;6.25;;;8.90;99.90;;;;;;5051853;28;20192;-86
2022/04/30 06:17:02;;;;;;;10.65;6.78;;;9.00;99.90;;;;;;5049925;28;20259;-79
2022/04/30 06:19:28;;;;;;;6.25;5.60;;;9.20;99.90;;;;;;5048211;28;20175;-85
2022/04/30 06:21:54;;;;;;;9.75;6.32;;;9.10;99.90;;;;;;5033670;28;20172;-90
2022/04/30 06:24:20;;;;;;;10.30;6.18;;;9.20;99.90;;;;;;5035649;28;20170;-89
2022/04/30 06:26:46;;;;;;;11.60;5.63;;;9.20;99.90;;;;;;5037074;28;20334;-86
2022/04/30 06:29:12;;;;;;;12.50;6.45;;;9.40;99.90;;;;;;5037279;28;20251;-83
2022/04/30 06:31:39;;;;;;;6.93;4.78;;;9.30;99.90;;;;;;5036102;28;20570;-87
2022/04/30 06:34:05;;;;;;;8.43;5.95;;;9.30;99.90;;;;;;5036036;28;20168;-82
2022/04/30 06:36:30;;;;;;;14.00;6.38;;;9.20;99.90;;;;;;5036537;28;20624;-82
2022/04/30 06:38:56;;;;;;;15.90;6.03;;;9.30;99.90;;;;;;5036447;28;20193;-84
2022/04/30 06:41:22;;;;;;;6.00;5.40;;;9.50;99.90;;;;;;5037336;28;20201;-79
2022/04/30 06:43:50;;;;;;;13.43;5.88;;;9.90;99.90;;;;;;5036496;28;20168;-80
2022/04/30 06:46:16;;;;;;;11.68;6.22;;;10.20;99.90;;;;;;5035965;28;20303;-84
2022/04/30 06:48:42;;;;;;;11.70;7.00;;;10.30;99.90;;;;;;5036383;28;20168;-81
2022/04/30 06:51:07;;;;;;;11.85;5.55;;;10.40;99.90;;;;;;5036283;28;20493;-77
2022/04/30 06:59:10;;;;;;;5.40;4.90;;;10.30;99.90;;;;;;5036721;28;20178;-85
2022/04/30 07:01:59;;;;;;;8.45;5.85;;;10.40;99.90;;;;;;5037534;28;20186;-84
2022/04/30 07:04:26;;;;;;;10.77;5.15;;;10.50;99.90;;;;;;5037238;28;20195;-82
2022/04/30 07:06:52;;;;;;;14.55;5.47;;;10.60;99.90;;;;;;5037995;28;20725;-92
2022/04/30 07:09:18;;;;;;;15.88;5.82;;;10.90;99.90;;;;;;5038303;28;20172;-88
2022/04/30 07:11:45;;;;;;;8.43;5.18;;;11.30;99.90;;;;;;5037181;28;20172;-85
2022/04/30 07:14:11;;;;;;;6.78;3.90;;;11.30;99.90;;;;;;5039319;28;20171;-89
2022/04/30 07:16:36;;;;;;;4.82;4.15;;;11.40;99.90;;;;;;5038303;28;20176;-87
2022/04/30 07:19:03;;;;;;;6.55;4.05;;;11.40;99.90;;;;;;5036632;28;20616;-91
2022/04/30 07:21:31;;;;;;;4.60;4.00;;;11.40;99.90;;;;;;5036608;28;20616;-92
2022/04/30 07:23:57;;;;;;;7.60;3.83;;;11.50;99.90;;;;;;5037466;28;20176;-93
2022/04/30 07:26:24;;;;;;;4.78;3.80;;;11.50;99.90;;;;;;5036184;28;20671;-92
2022/04/30 07:28:49;;;;;;;6.18;3.88;;;11.40;99.90;;;;;;5036317;28;20573;-88
2022/04/30 07:31:15;;;;;;;6.60;3.85;;;11.30;99.90;;;;;;5036473;28;20167;-88
2022/04/30 07:33:41;;;;;;;10.75;4.03;;;11.50;99.90;;;;;;5036286;28;20271;-88
2022/04/30 07:36:07;;;;;;;5.32;3.75;;;11.40;99.90;;;;;;5034654;28;20608;-87
2022/04/30 07:38:32;;;;;;;16.90;4.68;;;11.60;99.90;;;;;;5051509;28;20570;-90
2022/04/30 07:40:58;;;;;;;7.88;3.97;;;11.40;99.90;;;;;;5037110;28;20178;-89
2022/04/30 07:43:24;;;;;;;4.38;3.97;;;11.30;99.90;;;;;;5036481;28;20187;-85
2022/04/30 07:45:49;;;;;;;10.10;3.78;;;11.50;99.90;;;;;;5046911;28;20206;-82
2022/04/30 07:48:15;;;;;;;5.32;3.80;;;11.40;99.90;;;;;;5052994;28;20528;-83
2022/04/30 07:50:44;;;;;;;5.03;3.28;;;11.40;99.90;;;;;;5043638;28;20218;-88
2022/04/30 07:53:11;;;;;;;6.95;3.88;;;11.40;99.90;;;;;;5043880;28;20164;-88
2022/04/30 07:55:37;;;;;;;3.40;3.10;;;11.20;99.90;;;;;;5035779;28;20188;-88
2022/04/30 07:58:02;;;;;;;3.47;3.08;;;11.40;99.90;;;;;;5035521;28;20229;-88
2022/04/30 08:00:29;;;;;;;8.60;4.10;;;11.50;99.90;;;;;;5035381;28;20184;-88
2022/04/30 08:02:56;;;;;;;3.20;2.90;;;11.50;99.90;;;;;;5035533;28;20176;-87
2022/04/30 08:05:22;;;;;;;3.08;2.78;;;11.40;99.90;;;;;;5050967;28;20188;-87
2022/04/30 08:07:48;;;;;;;12.73;3.60;;;11.50;99.90;;;;;;5035774;28;20263;-86
2022/04/30 08:10:14;;;;;;;7.22;3.10;;;11.70;99.90;;;;;;5035617;28;20676;-88
2022/04/30 08:12:40;;;;;;;9.05;3.50;;;11.80;99.90;;;;;;5035433;28;20179;-87
2022/04/30 08:15:06;;;;;;;3.50;3.20;;;11.70;99.90;;;;;;5035920;28;20544;-85
2022/04/30 08:17:31;;;;;;;5.30;3.55;;;11.80;99.90;;;;;;5036946;28;20226;-85
2022/04/30 08:19:57;;;;;;;3.42;3.13;;;11.80;99.90;;;;;;5035039;28;20180;-89
2022/04/30 08:22:23;;;;;;;11.73;4.18;;;11.60;99.90;;;;;;5035245;28;20226;-88
2022/04/30 08:24:48;;;;;;;5.38;3.65;;;11.70;99.90;;;;;;5034871;28;20195;-86
2022/04/30 08:27:14;;;;;;;14.60;4.13;;;11.70;99.90;;;;;;5034468;28;20741;-88
2022/04/30 08:29:40;;;;;;;10.75;4.45;;;12.00;99.90;;;;;;5034990;28;20168;-89
2022/04/30 08:32:06;;;;;;;3.67;3.38;;;12.50;99.90;;;;;;5034769;28;20203;-83
2022/04/30 08:34:32;;;;;;;8.77;3.58;;;12.80;99.90;;;;;;5037293;28;20184;-84
2022/04/30 08:36:57;;;;;;;7.65;4.05;;;12.50;99.90;;;;;;5050462;28;20690;-83
2022/04/30 08:39:23;;;;;;;6.72;4.53;;;12.40;99.90;;;;;;5034698;28;20172;-87
2022/04/30 08:41:49;;;;;;;10.05;3.47;;;12.50;99.90;;;;;;5035495;28;20218;-87
2022/04/30 08:44:16;;;;;;;4.97;3.45;;;12.70;99.90;;;;;;5035830;28;20167;-85
2022/04/30 08:46:42;;;;;;;6.65;3.28;;;12.60;99.90;;;;;;5034229;28;20204;-89
2022/04/30 08:49:09;;;;;;;3.50;3.20;;;12.60;99.90;;;;;;5034571;28;20164;-89
2022/04/30 08:51:34;;;;;;;3.38;2.97;;;12.40;99.90;;;;;;5034990;28;20172;-88
2022/04/30 08:54:00;;;;;;;6.18;3.30;;;12.30;99.90;;;;;;5034884;28;20160;-89
2022/04/30 08:56:26;;;;;;;5.75;3.30;;;12.40;99.90;;;;;;5035043;28;20207;-91
2022/04/30 08:58:57;;;;;;;4.57;3.72;;;12.60;99.90;;;;;;5034518;28;20160;-91
2022/04/30 09:01:23;;;;;;;5.15;3.17;;;12.90;99.90;;;;;;5035318;28;20196;-86
2022/04/30 09:03:49;;;;;;;3.72;3.05;;;13.40;99.90;;;;;;5034697;28;20194;-86
2022/04/30 09:06:18;;;;;;;7.07;3.25;;;13.80;99.90;;;;;;5034485;28;20207;-90
2022/04/30 09:08:53;;;;;;;4.03;3.58;;;14.10;99.90;;;;;;5034076;28;20168;-85
2022/04/30 09:11:28;;;;;;;9.32;3.85;;;14.10;99.90;;;;;;5049770;28;20186;-89
2022/04/30 09:13:53;;;;;;;6.43;3.38;;;14.00;99.90;;;;;;5032674;28;20166;-90
2022/04/30 09:16:20;;;;;;;5.47;3.45;;;14.00;99.90;;;;;;5033828;28;20180;-88
2022/04/30 09:18:48;;;;;;;5.85;3.65;;;14.20;99.90;;;;;;5034542;28;20167;-92
2022/04/30 09:21:15;;;;;;;3.88;3.58;;;13.90;99.90;;;;;;5050164;28;20688;-88
2022/04/30 09:23:42;;;;;;;4.70;3.45;;;13.80;99.90;;;;;;5034277;28;20237;-91
2022/04/30 09:26:07;;;;;;;4.18;3.70;;;13.90;99.90;;;;;;5034329;28;20191;-89
2022/04/30 09:28:38;;;;;;;5.72;4.53;;;13.90;99.90;;;;;;5033940;28;20168;-89
2022/04/30 09:31:09;;;;;;;12.40;4.20;;;14.10;99.90;;;;;;5039439;28;20536;-87
2022/04/30 09:33:52;;;;;;;4.55;4.13;;;14.30;99.90;;;;;;5045134;28;20253;-88
2022/04/30 09:39:13;;;;;;;5.97;3.63;;;13.80;99.90;;;;;;5034823;28;20187;-87
2022/04/30 09:41:39;;;;;;;4.38;3.75;;;13.70;99.90;;;;;;5034522;28;20166;-88
2022/04/30 09:44:07;;;;;;;7.15;3.80;;;13.50;99.90;;;;;;5034579;28;20175;-89
2022/04/30 09:46:38;;;;;;;6.68;3.40;;;14.00;99.90;;;;;;5034251;28;20675;-88
2022/04/30 09:54:40;;;;;;;14.65;3.63;;;14.60;99.90;;;;;;5034793;28;20804;-88
2022/04/30 09:57:10;;;;;;;4.32;3.53;;;14.70;99.90;;;;;;5033921;28;20577;-91
2022/04/30 09:59:40;;;;;;;7.13;4.50;;;14.60;99.90;;;;;;5036807;28;20207;-89
2022/04/30 10:02:08;;;;;;;4.32;4.03;;;14.50;99.90;;;;;;5039492;28;20175;-86
2022/04/30 10:04:35;;;;;;;4.82;4.22;;;14.60;99.90;;;;;;5038019;28;20183;-85
2022/04/30 10:07:03;;;;;;;5.05;4.40;;;14.80;99.90;;;;;;5036974;28;20218;-84
2022/04/30 10:09:32;;;;;;;4.30;3.90;;;15.00;99.90;;;;;;5037961;28;20217;-80
2022/04/30 10:12:15;;;;;;;3.95;3.58;;;15.30;99.90;;;;;;5036483;28;20171;-86
2022/04/30 10:15:09;;;;;;;4.93;4.28;;;14.80;99.90;;;;;;5036890;28;20202;-79
2022/04/30 10:17:38;;;;;;;10.88;4.65;;;14.10;99.90;;;;;;5036935;28;20276;-84
2022/04/30 10:20:16;;;;;;;8.45;4.80;;;14.00;99.90;;;;;;5052171;28;20651;-78
2022/04/30 10:22:58;;;;;;;6.30;4.97;;;14.10;99.90;;;;;;5037009;28;20222;-82
2022/04/30 10:25:33;;;;;;;10.77;5.38;;;13.90;99.90;;;;;;5035243;28;20217;-83
2022/04/30 10:28:03;;;;;;;12.48;5.53;;;14.00;99.90;;;;;;5035992;28;20648;-84
2022/04/30 10:30:28;;;;;;;12.85;6.00;;;14.20;99.90;;;;;;5030999;28;20167;-85
2022/04/30 10:32:59;;;;;;;5.97;5.50;;;14.50;99.90;;;;;;5035761;28;20171;-81
2022/04/30 10:35:33;;;;;;;6.10;5.40;;;15.00;99.90;;;;;;5037247;28;20278;-85
2022/04/30 10:38:08;;;;;;;7.93;5.15;;;15.50;99.90;;;;;;5038811;28;20179;-84
2022/04/30 10:40:44;;;;;;;5.43;4.88;;;15.20;99.90;;;;;;5036894;28;20221;-78
2022/04/30 10:43:19;;;;;;;6.28;5.38;;;14.70;99.90;;;;;;5036276;28;20172;-87
2022/04/30 10:45:46;;;;;;;7.80;5.07;;;14.80;99.90;;;;;;5036719;28;20542;-80
2022/04/30 10:48:12;;;;;;;5.70;5.30;;;15.00;99.90;;;;;;5036616;28;20164;-80
2022/04/30 10:50:38;;;;;;;8.48;4.72;;;14.90;99.90;;;;;;5036523;28;20268;-81
2022/04/30 10:53:08;;;;;;;13.27;4.63;;;15.10;99.90;;;;;;5036028;28;20493;-79
2022/04/30 10:55:34;;;;;;;6.80;4.68;;;14.90;99.90;;;;;;5035949;28;20246;-86
2022/04/30 10:58:00;;;;;;;6.53;5.32;;;14.90;99.90;;;;;;5036982;28;20243;-80
2022/04/30 11:00:26;;;;;;;9.93;4.97;;;14.80;99.90;;;;;;5037505;28;20219;-84
2022/04/30 11:02:52;;;;;;;5.25;4.85;;;15.20;99.90;;;;;;5036166;28;20160;-85
2022/04/30 11:05:22;;;;;;;8.55;6.07;;;14.90;99.90;;;;;;5036309;28;20198;-81
2022/04/30 11:07:49;;;;;;;10.20;6.63;;;14.60;99.90;;;;;;5035879;28;20230;-87
2022/04/30 11:10:15;;;;;;;7.32;6.50;;;14.70;99.90;;;;;;5037932;28;20167;-89
2022/04/30 11:12:41;;;;;;;9.10;6.15;;;14.80;99.90;;;;;;5056655;28;20242;-79
2022/04/30 11:15:09;;;;;;;6.30;4.22;;;14.70;99.90;;;;;;5054734;28;20195;-77
2022/04/30 11:17:43;;;;;;;6.03;5.05;;;14.60;99.90;;;;;;5040244;28;20175;-79
2022/04/30 11:20:09;;;;;;;5.15;4.75;;;14.40;99.90;;;;;;5042939;28;20232;-86
2022/04/30 11:22:35;;;;;;;5.00;4.60;;;14.70;99.90;;;;;;5037129;28;20172;-89
2022/04/30 11:25:00;;;;;;;9.85;4.60;;;14.80;99.90;;;;;;5037131;28;20175;-81
2022/04/30 11:27:30;;;;;;;8.63;5.53;;;15.00;99.90;;;;;;5038874;28;20218;-80
2022/04/30 11:29:56;;;;;;;5.50;4.57;;;15.30;99.90;;;;;;5036764;28;20196;-83
2022/04/30 11:32:23;;;;;;;4.50;4.10;;;15.40;99.90;;;;;;5035845;28;20200;-81
2022/04/30 11:34:50;;;;;;;5.97;5.40;;;14.80;99.90;;;;;;5034755;28;20180;-84
2022/04/30 11:37:16;;;;;;;5.28;4.78;;;14.80;99.90;;;;;;5035076;28;20171;-85
2022/04/30 11:39:41;;;;;;;5.18;4.45;;;15.10;99.90;;;;;;5051670;28;20709;-77
2022/04/30 11:42:08;;;;;;;5.10;4.28;;;15.10;99.90;;;;;;5035862;28;20167;-85
2022/04/30 11:44:33;;;;;;;6.38;4.60;;;15.10;99.90;;;;;;5035267;28;20680;-82
2022/04/30 11:46:59;;;;;;;7.05;4.57;;;15.20;99.90;;;;;;5035312;28;20208;-84
2022/04/30 11:49:26;;;;;;;5.60;4.55;;;15.60;99.90;;;;;;5051380;28;20175;-87
2022/04/30 11:51:55;;;;;;;5.53;4.88;;;15.80;99.90;;;;;;5035202;28;20164;-80
2022/04/30 11:54:24;;;;;;;5.47;4.20;;;16.00;99.90;;;;;;5035391;28;20690;-82
2022/04/30 11:56:50;;;;;;;9.27;4.82;;;16.00;99.90;;;;;;5050443;28;20275;-78
2022/04/30 11:59:27;;;;;;;16.00;4.43;;;15.90;99.90;;;;;;5035201;28;20651;-82
2022/04/30 12:01:53;;;;;;;5.53;4.05;;;15.50;99.90;;;;;;5035000;28;20535;-76
2022/04/30 12:04:22;;;;;;;11.05;4.85;;;15.80;99.90;;;;;;5034750;28;20172;-76
2022/04/30 12:07:00;;;;;;;6.32;5.15;;;15.80;99.90;;;;;;5034933;28;20222;-80
2022/04/30 12:09:30;;;;;;;6.40;5.68;;;16.10;99.90;;;;;;5034062;28;20631;-88
2022/04/30 12:11:57;;;;;;;5.00;4.40;;;15.80;99.90;;;;;;5035671;28;20163;-80
2022/04/30 12:14:23;;;;;;;14.50;5.47;;;15.60;99.90;;;;;;5035318;28;20168;-81
2022/04/30 12:16:49;;;;;;;7.10;5.22;;;15.30;99.90;;;;;;5034963;28;20168;-76
2022/04/30 12:25:14;;;;;;;7.15;5.25;;;15.50;99.90;;;;;;5034522;28;20226;-82
2022/04/30 12:27:41;;;;;;;6.03;4.78;;;15.60;99.90;;;;;;5033917;28;20207;-81
2022/04/30 12:30:16;;;;;;;6.95;5.07;;;15.70;99.90;;;;;;5034299;28;20164;-78
2022/04/30 12:33:05;;;;;;;5.18;4.32;;;15.50;99.90;;;;;;5034139;28;20190;-82
2022/04/30 12:35:38;;;;;;;3.85;3.50;;;15.40;99.90;;;;;;5033789;28;20203;-79
2022/04/30 12:38:06;;;;;;;5.50;3.20;;;15.10;99.90;;;;;;5033988;28;20171;-80
2022/04/30 12:40:34;;;;;;;4.22;3.47;;;15.10;99.90;;;;;;5034301;28;20259;-78
2022/04/30 12:43:00;;;;;;;4.10;3.13;;;15.00;99.90;;;;;;5049917;28;20528;-78
2022/04/30 12:45:26;;;;;;;3.58;2.92;;;14.90;99.90;;;;;;5033480;28;20187;-77
2022/04/30 12:47:55;;;;;;;6.60;3.20;;;15.10;99.90;;;;;;5034007;28;20175;-76
2022/04/30 12:50:21;;;;;;;3.50;3.17;;;15.20;99.90;;;;;;5033687;28;20620;-76
2022/04/30 12:52:47;;;;;;;5.38;3.58;;;15.10;99.90;;;;;;5049049;28;20266;-76
2022/04/30 12:55:14;;;;;;;6.50;3.47;;;15.30;99.90;;;;;;5033586;28;20270;-77
2022/04/30 12:57:40;;;;;;;2.90;2.70;;;15.30;99.90;;;;;;5049013;28;20525;-78
2022/04/30 13:00:10;;;;;;;4.90;3.75;;;15.50;99.90;;;;;;5033574;28;20190;-77
2022/04/30 13:02:38;;;;;;;5.25;3.55;;;15.70;99.90;;;;;;5033424;28;20179;-81
2022/04/30 13:05:06;;;;;;;4.43;3.20;;;15.80;99.90;;;;;;5033465;28;20563;-77
2022/04/30 13:07:32;;;;;;;9.40;3.60;;;15.90;99.90;;;;;;5034170;28;20242;-76
2022/04/30 13:15:28;;;;;;;5.03;3.22;;;16.00;99.90;;;;;;5012511;28;20239;-84
2022/04/30 13:17:56;;;;;;;8.90;3.53;;;15.50;99.90;;;;;;5034383;28;20168;-88
2022/04/30 13:20:22;;;;;;;4.38;3.53;;;15.70;99.90;;;;;;5034081;28;20164;-80
2022/04/30 13:22:49;;;;;;;7.15;3.60;;;15.80;99.90;;;;;;5034579;28;20539;-90
2022/04/30 13:25:16;;;;;;;3.85;3.55;;;16.20;99.90;;;;;;5034744;28;20187;-90
2022/04/30 13:27:42;;;;;;;4.85;3.40;;;16.20;99.90;;;;;;5034358;28;20207;-90
2022/04/30 13:30:08;;;;;;;8.13;4.15;;;16.00;99.90;;;;;;5033746;28;20180;-89
2022/04/30 13:32:34;;;;;;;4.18;3.78;;;15.80;99.90;;;;;;5033073;28;20164;-90
2022/04/30 13:35:01;;;;;;;6.28;4.15;;;15.70;99.90;;;;;;5033997;28;20211;-89
2022/04/30 13:37:27;;;;;;;6.78;3.85;;;15.50;99.90;;;;;;5034472;28;20176;-85
2022/04/30 13:39:56;;;;;;;4.38;3.80;;;15.50;99.90;;;;;;5037151;28;20576;-86
2022/04/30 13:42:23;;;;;;;3.70;3.40;;;15.40;99.90;;;;;;5037428;28;20172;-91